Time;durP1;ratioP1;P1;durP2;ratioP2;P2;SDS_P1;SDS_P2;PMS_P1;PMS_P2;Temp;Humidity;BMP_temperature;BMP_pressure;BME280_temperature;BME280_humidity;BME280_pressure;Samples;Min_cycle;Max_cycle;Signal;HPM_P1;HPM_P2
2022/04/08 00:00:19;;;;;;;10.17;2.60;;;6.40;99.90;;;;;;5009345;28;20211;-81
2022/04/08 00:02:46;;;;;;;15.47;2.60;;;6.40;99.90;;;;;;5009696;28;20191;-81
2022/04/08 00:05:13;;;;;;;15.57;3.23;;;6.40;99.90;;;;;;5007988;28;20607;-81
2022/04/08 00:07:40;;;;;;;17.07;3.37;;;6.40;99.90;;;;;;5007573;28;20199;-81
2022/04/08 00:10:07;;;;;;;11.00;2.73;;;6.50;99.90;;;;;;5008110;28;20270;-81
2022/04/08 00:12:34;;;;;;;14.97;2.50;;;6.50;99.90;;;;;;5008650;28;20231;-81
2022/04/08 00:15:03;;;;;;;13.90;3.10;;;6.50;99.90;;;;;;5009156;28;20207;-81
2022/04/08 00:17:32;;;;;;;11.53;3.67;;;6.50;99.90;;;;;;5008659;28;20211;-81
2022/04/08 00:19:58;;;;;;;13.13;2.67;;;6.50;99.90;;;;;;5008545;28;20207;-80
2022/04/08 00:22:25;;;;;;;9.67;2.43;;;6.50;99.90;;;;;;5008911;28;20206;-82
2022/04/08 00:24:52;;;;;;;16.47;3.40;;;6.50;99.90;;;;;;5008965;28;20513;-82
2022/04/08 00:27:19;;;;;;;20.23;3.73;;;6.60;99.90;;;;;;5007803;28;20572;-79
2022/04/08 00:29:45;;;;;;;22.23;2.70;;;6.60;99.90;;;;;;5008384;28;20215;-80
2022/04/08 00:32:12;;;;;;;12.00;2.57;;;6.60;99.90;;;;;;5006759;28;20520;-79
2022/04/08 00:34:41;;;;;;;13.60;3.57;;;6.60;99.90;;;;;;5007316;28;20576;-79
2022/04/08 00:37:09;;;;;;;11.03;2.70;;;6.60;99.90;;;;;;5008153;28;20210;-78
2022/04/08 00:39:36;;;;;;;15.30;2.60;;;6.60;99.90;;;;;;5006838;28;20250;-80
2022/04/08 00:42:03;;;;;;;15.37;2.50;;;6.60;99.90;;;;;;5007099;28;20214;-78
2022/04/08 00:44:31;;;;;;;11.47;2.80;;;6.60;99.90;;;;;;5007067;28;20231;-78
2022/04/08 00:46:58;;;;;;;11.97;2.90;;;6.60;99.90;;;;;;5007889;28;20309;-78
2022/04/08 00:49:24;;;;;;;13.53;2.63;;;6.60;99.90;;;;;;5019261;28;20211;-77
2022/04/08 00:51:53;;;;;;;14.37;3.40;;;6.70;99.90;;;;;;5014313;28;20210;-80
2022/04/08 00:54:21;;;;;;;9.87;2.47;;;6.60;99.90;;;;;;5015645;28;20234;-79
2022/04/08 00:56:50;;;;;;;12.07;3.20;;;6.60;99.90;;;;;;5020934;28;20218;-80
2022/04/08 00:59:18;;;;;;;9.10;2.53;;;6.70;99.90;;;;;;5021172;28;20607;-81
2022/04/08 01:01:46;;;;;;;11.03;2.87;;;6.70;99.90;;;;;;5022046;28;20215;-79
2022/04/08 01:04:13;;;;;;;9.13;2.47;;;6.70;99.90;;;;;;5013177;28;20289;-80
2022/04/08 01:06:41;;;;;;;14.93;3.30;;;6.70;99.90;;;;;;5023264;28;20209;-79
2022/04/08 01:09:10;;;;;;;12.40;2.60;;;6.80;99.90;;;;;;5016766;28;20203;-79
2022/04/08 01:11:37;;;;;;;14.30;3.20;;;6.80;99.90;;;;;;5013298;28;20635;-79
2022/04/08 01:14:11;;;;;;;14.27;3.10;;;6.90;99.90;;;;;;5021578;28;20222;-77
2022/04/08 01:16:38;;;;;;;12.07;2.90;;;7.00;99.90;;;;;;5016177;28;20258;-81
2022/04/08 01:19:06;;;;;;;10.77;2.17;;;6.90;99.90;;;;;;5019110;28;20229;-78
2022/04/08 01:21:33;;;;;;;10.80;2.67;;;7.00;99.90;;;;;;5019747;28;20962;-78
2022/04/08 01:24:01;;;;;;;9.03;2.10;;;7.00;99.90;;;;;;5017148;28;20211;-79
2022/04/08 01:26:30;;;;;;;8.17;2.23;;;7.00;99.90;;;;;;5017067;28;20214;-80
2022/04/08 01:28:57;;;;;;;8.93;1.90;;;6.90;99.90;;;;;;5017996;28;20215;-80
2022/04/08 01:31:25;;;;;;;9.53;2.30;;;7.00;99.90;;;;;;5017208;28;20217;-78
2022/04/08 01:33:52;;;;;;;9.13;1.93;;;6.90;99.90;;;;;;5026593;28;20226;-79
2022/04/08 01:36:19;;;;;;;11.57;2.00;;;6.90;99.90;;;;;;5025985;28;20249;-80
2022/04/08 01:38:46;;;;;;;12.07;2.27;;;6.90;99.90;;;;;;5022821;28;20223;-78
2022/04/08 01:41:16;;;;;;;6.07;2.27;;;6.90;99.90;;;;;;5005848;28;20241;-82
2022/04/08 01:43:44;;;;;;;15.33;2.93;;;6.90;99.90;;;;;;5005491;28;20235;-77
2022/04/08 01:46:11;;;;;;;15.67;2.90;;;6.90;99.90;;;;;;5007154;28;20215;-80
2022/04/08 01:48:38;;;;;;;11.50;3.27;;;6.90;99.90;;;;;;5015932;28;20210;-81
2022/04/08 01:51:05;;;;;;;15.97;3.47;;;6.90;99.90;;;;;;5006222;28;20208;-79
2022/04/08 01:53:31;;;;;;;10.57;2.33;;;6.90;99.90;;;;;;5008095;28;20336;-82
2022/04/08 01:55:58;;;;;;;15.37;3.63;;;6.80;99.90;;;;;;5012132;28;20203;-85
2022/04/08 01:58:25;;;;;;;11.10;3.13;;;6.90;99.90;;;;;;5029528;28;20206;-81
2022/04/08 02:00:53;;;;;;;13.30;3.47;;;6.90;99.90;;;;;;5025461;28;20202;-83
2022/04/08 02:03:20;;;;;;;13.33;2.93;;;6.90;99.90;;;;;;5009220;28;20528;-83
2022/04/08 02:05:47;;;;;;;12.33;3.03;;;6.90;99.90;;;;;;5009218;28;20535;-81
2022/04/08 02:08:14;;;;;;;11.77;3.00;;;6.90;99.90;;;;;;5009978;28;20218;-82
2022/04/08 02:10:40;;;;;;;11.37;2.80;;;7.00;99.90;;;;;;5010395;28;20231;-81
2022/04/08 02:13:08;;;;;;;16.90;2.90;;;7.00;99.90;;;;;;5009351;28;20203;-80
2022/04/08 02:15:35;;;;;;;15.30;3.20;;;7.00;99.90;;;;;;5009566;28;20203;-82
2022/04/08 02:18:04;;;;;;;9.73;2.30;;;6.90;99.90;;;;;;5009540;28;20218;-81
2022/04/08 02:20:32;;;;;;;14.20;2.57;;;6.80;99.90;;;;;;5007838;28;20194;-81
2022/04/08 02:23:00;;;;;;;8.53;2.07;;;6.70;99.90;;;;;;5008968;28;20199;-84
2022/04/08 02:25:27;;;;;;;12.57;2.10;;;6.60;99.90;;;;;;5008477;28;20200;-80
2022/04/08 02:27:55;;;;;;;11.13;2.10;;;6.60;99.90;;;;;;5008675;28;20214;-82
2022/04/08 02:30:22;;;;;;;6.70;2.23;;;6.50;99.90;;;;;;5008959;28;20218;-80
2022/04/08 02:32:49;;;;;;;8.90;1.90;;;6.50;99.90;;;;;;5008069;28;20195;-79
2022/04/08 02:35:17;;;;;;;10.77;2.07;;;6.50;99.90;;;;;;5008550;28;20246;-84
2022/04/08 02:37:44;;;;;;;8.37;2.93;;;6.50;99.90;;;;;;5008145;28;20204;-83
2022/04/08 02:40:12;;;;;;;10.27;2.30;;;6.50;99.90;;;;;;5008860;28;20271;-82
2022/04/08 02:42:39;;;;;;;14.23;2.23;;;6.50;99.90;;;;;;5009292;28;20634;-81
2022/04/08 02:45:07;;;;;;;17.43;2.70;;;6.40;99.90;;;;;;5008346;28;20195;-82
2022/04/08 02:47:41;;;;;;;13.87;3.07;;;6.40;99.90;;;;;;5007670;28;20279;-82
2022/04/08 02:50:08;;;;;;;16.60;3.30;;;6.40;99.90;;;;;;5008729;28;20607;-81
2022/04/08 02:52:36;;;;;;;13.17;2.70;;;6.40;99.90;;;;;;5009250;28;20486;-82
2022/04/08 02:55:04;;;;;;;11.23;2.60;;;6.40;99.90;;;;;;5008349;28;20686;-82
2022/04/08 02:57:31;;;;;;;11.60;2.50;;;6.40;99.90;;;;;;5008385;28;20554;-83
2022/04/08 03:00:00;;;;;;;14.43;2.93;;;6.50;99.90;;;;;;5008486;28;20496;-82
2022/04/08 03:02:26;;;;;;;12.17;2.90;;;6.60;99.90;;;;;;5008223;28;20654;-81
2022/04/08 03:04:53;;;;;;;16.13;3.37;;;6.70;99.90;;;;;;5008059;28;20210;-82
2022/04/08 03:07:20;;;;;;;10.30;2.60;;;6.70;99.90;;;;;;5006632;28;20214;-82
2022/04/08 03:09:48;;;;;;;11.90;2.70;;;6.70;99.90;;;;;;5007414;28;20211;-82
2022/04/08 03:12:18;;;;;;;15.23;3.50;;;6.80;99.90;;;;;;5004987;28;20730;-83
2022/04/08 03:14:44;;;;;;;11.07;2.40;;;6.90;99.90;;;;;;5006410;28;20322;-82
2022/04/08 03:17:11;;;;;;;13.43;4.50;;;6.90;99.90;;;;;;5009216;28;20770;-86
2022/04/08 03:19:38;;;;;;;10.07;2.53;;;6.90;99.90;;;;;;5008144;28;20211;-81
2022/04/08 03:22:06;;;;;;;7.93;2.67;;;6.90;99.90;;;;;;5006796;28;20534;-85
2022/04/08 03:24:33;;;;;;;9.10;2.53;;;6.90;99.90;;;;;;5006890;28;20746;-82
2022/04/08 03:27:01;;;;;;;10.20;3.00;;;7.00;99.90;;;;;;5010328;28;20210;-81
2022/04/08 03:29:27;;;;;;;13.97;2.80;;;6.90;99.90;;;;;;5027041;28;20191;-80
2022/04/08 03:31:54;;;;;;;10.60;2.90;;;6.90;99.90;;;;;;5025793;28;20215;-79
2022/04/08 03:34:21;;;;;;;14.53;2.80;;;6.90;99.90;;;;;;5006905;28;20587;-78
2022/04/08 03:36:48;;;;;;;6.80;2.37;;;6.90;99.90;;;;;;5018767;28;20217;-81
2022/04/08 03:39:16;;;;;;;11.90;2.87;;;6.90;99.90;;;;;;5027458;28;20233;-83
2022/04/08 03:41:43;;;;;;;13.13;2.80;;;6.90;99.90;;;;;;5027376;28;20317;-82
2022/04/08 03:44:11;;;;;;;10.47;2.37;;;6.80;99.90;;;;;;5011493;28;20238;-85
2022/04/08 03:46:38;;;;;;;15.30;3.37;;;6.80;99.90;;;;;;5008001;28;20265;-83
2022/04/08 03:49:11;;;;;;;7.67;2.70;;;6.80;99.90;;;;;;5012614;28;20520;-83
2022/04/08 03:51:37;;;;;;;14.03;3.30;;;6.80;99.90;;;;;;5011761;28;20245;-83
2022/04/08 03:54:04;;;;;;;8.37;2.73;;;6.80;99.90;;;;;;5011584;28;20238;-83
2022/04/08 03:56:31;;;;;;;10.10;2.70;;;6.80;99.90;;;;;;5011486;28;20219;-84
2022/04/08 03:58:58;;;;;;;9.97;3.07;;;6.80;99.90;;;;;;5010707;28;20221;-82
2022/04/08 04:01:26;;;;;;;14.20;2.93;;;6.80;99.90;;;;;;5011750;28;20609;-82
2022/04/08 04:03:53;;;;;;;10.60;2.77;;;6.80;99.90;;;;;;5011657;28;20199;-81
2022/04/08 04:06:20;;;;;;;12.10;2.37;;;6.80;99.90;;;;;;5010982;28;20192;-83
2022/04/08 04:08:47;;;;;;;8.53;2.23;;;6.80;99.90;;;;;;5013823;28;20214;-79
2022/04/08 04:11:15;;;;;;;12.77;2.23;;;6.80;99.90;;;;;;5026786;28;20524;-82
2022/04/08 04:13:41;;;;;;;13.33;2.83;;;6.80;99.90;;;;;;5030367;28;20203;-83
2022/04/08 04:16:08;;;;;;;14.17;2.97;;;6.80;99.90;;;;;;5019028;28;20211;-81
2022/04/08 04:18:37;;;;;;;7.27;2.40;;;6.80;99.90;;;;;;5010743;28;20204;-79
2022/04/08 04:21:04;;;;;;;15.93;2.67;;;6.80;99.90;;;;;;5010394;28;20826;-82
2022/04/08 04:23:33;;;;;;;9.47;2.30;;;6.80;99.90;;;;;;5009249;28;20200;-81
2022/04/08 04:26:00;;;;;;;11.50;2.90;;;6.80;99.90;;;;;;5009705;28;20298;-81
2022/04/08 04:28:29;;;;;;;10.57;2.10;;;6.80;99.90;;;;;;5020087;28;20233;-80
2022/04/08 04:30:59;;;;;;;10.30;3.33;;;6.70;99.90;;;;;;5011027;28;20207;-82
2022/04/08 04:33:26;;;;;;;9.53;2.17;;;6.70;99.90;;;;;;5010635;28;20261;-84
2022/04/08 04:35:55;;;;;;;16.67;4.00;;;6.80;99.90;;;;;;5011157;28;20230;-83
2022/04/08 04:38:22;;;;;;;9.60;2.33;;;6.70;99.90;;;;;;5010639;28;20606;-81
2022/04/08 04:40:48;;;;;;;10.27;2.87;;;6.80;99.90;;;;;;5009980;28;20202;-82
2022/04/08 04:43:15;;;;;;;8.47;2.60;;;6.80;99.90;;;;;;5009988;28;20242;-82
2022/04/08 04:45:43;;;;;;;14.53;2.80;;;6.80;99.90;;;;;;5006996;28;20199;-83
2022/04/08 04:48:11;;;;;;;15.83;3.83;;;6.80;99.90;;;;;;5009197;28;20215;-83
2022/04/08 04:50:38;;;;;;;15.30;2.47;;;6.90;99.90;;;;;;5010820;28;20215;-81
2022/04/08 04:53:07;;;;;;;14.87;2.67;;;6.90;99.90;;;;;;5011547;28;20207;-83
2022/04/08 04:55:33;;;;;;;12.27;3.13;;;6.90;99.90;;;;;;5010354;28;20226;-85
2022/04/08 04:58:01;;;;;;;12.33;3.13;;;6.90;99.90;;;;;;5007009;28;20218;-81
2022/04/08 05:00:28;;;;;;;17.70;3.50;;;6.90;99.90;;;;;;5006697;28;20209;-81
2022/04/08 05:02:54;;;;;;;13.80;3.63;;;6.90;99.90;;;;;;5006686;28;20202;-79
2022/04/08 05:05:21;;;;;;;13.60;3.37;;;6.90;99.90;;;;;;5006221;28;20207;-81
2022/04/08 05:07:48;;;;;;;15.87;2.77;;;6.80;99.90;;;;;;5005026;28;20617;-79
2022/04/08 05:10:16;;;;;;;6.33;2.47;;;6.80;99.90;;;;;;5004889;28;20845;-78
2022/04/08 05:12:43;;;;;;;11.57;2.70;;;6.80;99.90;;;;;;5005872;28;20270;-78
2022/04/08 05:15:11;;;;;;;10.67;2.70;;;6.80;99.90;;;;;;5005361;28;20234;-78
2022/04/08 05:17:38;;;;;;;11.47;2.43;;;6.80;99.90;;;;;;5005851;28;20253;-81
2022/04/08 05:20:07;;;;;;;10.60;3.00;;;6.80;99.90;;;;;;5007262;28;20217;-80
2022/04/08 05:22:34;;;;;;;9.33;2.50;;;6.80;99.90;;;;;;5012239;28;20210;-79
2022/04/08 05:25:01;;;;;;;10.57;3.17;;;6.80;99.90;;;;;;5025869;28;20289;-81
2022/04/08 05:27:36;;;;;;;13.43;3.23;;;6.80;99.90;;;;;;5011231;28;20218;-79
2022/04/08 05:30:06;;;;;;;13.43;2.70;;;6.90;99.90;;;;;;5005544;28;20322;-78
2022/04/08 05:32:33;;;;;;;15.87;3.47;;;6.90;99.90;;;;;;5013415;28;20587;-78
2022/04/08 05:35:00;;;;;;;13.43;2.70;;;6.90;99.90;;;;;;5025424;28;20215;-80
2022/04/08 05:37:28;;;;;;;8.67;2.67;;;6.90;99.90;;;;;;5014386;28;20218;-79
2022/04/08 05:39:55;;;;;;;13.37;2.63;;;6.90;99.90;;;;;;5006144;28;20207;-78
2022/04/08 05:42:22;;;;;;;12.70;2.83;;;6.90;99.90;;;;;;5005242;28;20211;-79
2022/04/08 05:44:50;;;;;;;9.60;2.57;;;6.90;99.90;;;;;;5006446;28;20227;-79
2022/04/08 05:47:17;;;;;;;13.00;2.80;;;6.90;99.90;;;;;;5008076;28;20207;-79
2022/04/08 05:49:44;;;;;;;15.80;3.90;;;6.90;99.90;;;;;;5025526;28;20212;-79
2022/04/08 05:52:12;;;;;;;12.33;2.90;;;7.00;99.90;;;;;;5006791;28;20210;-77
2022/04/08 05:54:38;;;;;;;15.27;2.60;;;7.00;99.90;;;;;;5005538;28;20882;-78
2022/04/08 05:57:05;;;;;;;15.67;2.97;;;7.00;99.90;;;;;;5005789;28;20203;-80
2022/04/08 05:59:33;;;;;;;9.60;2.30;;;7.10;99.90;;;;;;5006043;28;20195;-77
2022/04/08 06:02:01;;;;;;;9.03;3.00;;;7.10;99.90;;;;;;5025542;28;20309;-78
2022/04/08 06:04:27;;;;;;;11.73;3.30;;;7.10;99.90;;;;;;5025241;28;20209;-80
2022/04/08 06:06:54;;;;;;;15.50;2.80;;;7.10;99.90;;;;;;5013110;28;20214;-78
2022/04/08 06:09:21;;;;;;;10.90;2.47;;;7.10;99.90;;;;;;5005261;28;20211;-79
2022/04/08 06:11:48;;;;;;;14.33;2.60;;;7.20;99.90;;;;;;5004446;28;20634;-80
2022/04/08 06:14:15;;;;;;;8.17;2.27;;;7.10;99.90;;;;;;5005790;28;20222;-82
2022/04/08 06:16:43;;;;;;;13.27;2.77;;;7.20;99.90;;;;;;5005460;28;20223;-79
2022/04/08 06:19:11;;;;;;;17.30;4.30;;;7.20;99.90;;;;;;5005614;28;20651;-79
2022/04/08 06:21:38;;;;;;;9.87;2.30;;;7.20;99.90;;;;;;5004605;28;20222;-81
2022/04/08 06:24:05;;;;;;;16.93;3.43;;;7.30;99.90;;;;;;5005337;28;20199;-80
2022/04/08 06:26:34;;;;;;;14.63;2.97;;;7.30;99.90;;;;;;5004298;28;20200;-80
2022/04/08 06:29:02;;;;;;;14.10;3.53;;;7.30;99.90;;;;;;5005257;28;20261;-79
2022/04/08 06:31:30;;;;;;;12.53;2.60;;;7.40;99.90;;;;;;5005762;28;20199;-78
2022/04/08 06:33:57;;;;;;;10.53;2.27;;;7.40;99.90;;;;;;5004848;28;20226;-84
2022/04/08 06:36:26;;;;;;;15.33;3.37;;;7.40;99.90;;;;;;5004351;28;20219;-79
2022/04/08 06:38:52;;;;;;;10.87;2.87;;;7.40;99.90;;;;;;5004533;28;20470;-78
2022/04/08 06:41:19;;;;;;;7.60;2.53;;;7.30;99.90;;;;;;5004620;28;20583;-78
2022/04/08 06:43:46;;;;;;;10.57;3.40;;;7.40;99.90;;;;;;5005433;28;20250;-78
2022/04/08 06:46:13;;;;;;;7.97;2.67;;;7.40;99.90;;;;;;5004226;28;20215;-80
2022/04/08 06:48:40;;;;;;;12.60;2.50;;;7.40;99.90;;;;;;5015128;28;20213;-78
2022/04/08 06:51:07;;;;;;;10.50;2.27;;;7.50;99.90;;;;;;5005163;28;20207;-79
2022/04/08 06:53:35;;;;;;;11.43;2.10;;;7.50;99.90;;;;;;5004318;28;20240;-78
2022/04/08 06:56:03;;;;;;;9.33;2.30;;;7.70;99.90;;;;;;5004783;28;20231;-78
2022/04/08 06:58:30;;;;;;;7.10;2.13;;;7.70;99.90;;;;;;5005081;28;20203;-80
2022/04/08 07:00:57;;;;;;;8.10;2.03;;;7.80;99.90;;;;;;5004461;28;20317;-81
2022/04/08 07:03:24;;;;;;;9.37;2.23;;;7.80;99.90;;;;;;5005227;28;20206;-79
2022/04/08 07:05:51;;;;;;;14.13;3.40;;;7.90;99.90;;;;;;5005260;28;20211;-83
2022/04/08 07:08:18;;;;;;;12.17;2.10;;;7.90;99.90;;;;;;5004570;28;20222;-78
2022/04/08 07:10:46;;;;;;;8.50;2.17;;;7.90;99.90;;;;;;5005597;28;20230;-81
2022/04/08 07:13:13;;;;;;;10.63;2.47;;;7.90;99.90;;;;;;5006190;28;20214;-81
2022/04/08 07:15:40;;;;;;;8.37;2.13;;;7.90;99.90;;;;;;5003940;28;20234;-80
2022/04/08 07:18:07;;;;;;;8.93;2.13;;;7.90;99.90;;;;;;5018031;28;20218;-80
2022/04/08 07:20:34;;;;;;;13.03;2.57;;;7.90;99.90;;;;;;5024892;28;20202;-80
2022/04/08 07:23:02;;;;;;;9.43;2.33;;;8.00;99.90;;;;;;5023230;28;20206;-80
2022/04/08 07:25:29;;;;;;;7.73;2.27;;;8.00;99.90;;;;;;5026250;28;20195;-81
2022/04/08 07:27:58;;;;;;;12.50;2.30;;;8.00;99.90;;;;;;5025411;28;20576;-79
2022/04/08 07:30:26;;;;;;;9.40;2.40;;;8.00;99.90;;;;;;5027669;28;20206;-79
2022/04/08 07:32:54;;;;;;;7.93;2.23;;;8.10;99.90;;;;;;5028621;28;20207;-80
2022/04/08 07:35:23;;;;;;;11.50;2.47;;;8.20;99.90;;;;;;5007912;28;20237;-80
2022/04/08 07:37:50;;;;;;;13.60;2.57;;;8.20;99.90;;;;;;5007893;28;20254;-81
2022/04/08 07:40:17;;;;;;;9.80;2.57;;;8.30;99.90;;;;;;5007420;28;20204;-81
2022/04/08 07:42:44;;;;;;;8.93;2.07;;;8.30;99.90;;;;;;5006744;28;20211;-79
2022/04/08 07:45:13;;;;;;;8.47;2.30;;;8.30;99.90;;;;;;5007817;28;20658;-80
2022/04/08 07:47:40;;;;;;;12.00;2.60;;;8.40;99.90;;;;;;5013457;28;20213;-78
2022/04/08 07:50:10;;;;;;;10.57;3.43;;;8.40;99.90;;;;;;5013956;28;20207;-81
2022/04/08 07:52:37;;;;;;;7.80;2.03;;;8.30;99.90;;;;;;5007745;28;20607;-78
2022/04/08 07:55:05;;;;;;;8.47;2.50;;;8.30;99.90;;;;;;5008370;28;20663;-82
2022/04/08 07:57:31;;;;;;;10.70;2.10;;;8.40;99.90;;;;;;5007833;28;20564;-80
2022/04/08 07:59:58;;;;;;;9.03;2.20;;;8.50;99.90;;;;;;5009349;28;20211;-79
2022/04/08 08:02:29;;;;;;;6.83;1.90;;;8.50;99.90;;;;;;5009350;28;20308;-79
2022/04/08 08:04:55;;;;;;;4.80;2.00;;;8.60;99.90;;;;;;5009338;28;20204;-80
2022/04/08 08:07:22;;;;;;;12.50;2.53;;;8.60;99.90;;;;;;5008306;28;20203;-81
2022/04/08 08:09:49;;;;;;;10.30;2.23;;;8.60;99.90;;;;;;5008787;28;20203;-79
2022/04/08 08:12:16;;;;;;;10.17;2.10;;;8.60;99.90;;;;;;5009746;28;20246;-78
2022/04/08 08:14:43;;;;;;;10.40;2.20;;;8.70;99.90;;;;;;5028971;28;20195;-79
2022/04/08 08:17:10;;;;;;;7.10;2.00;;;8.90;99.90;;;;;;5028073;28;20230;-80
2022/04/08 08:19:38;;;;;;;7.87;2.20;;;9.00;99.90;;;;;;5025066;28;20205;-79
2022/04/08 08:22:04;;;;;;;12.17;2.87;;;9.10;99.90;;;;;;5008346;28;20214;-81
2022/04/08 08:24:31;;;;;;;7.00;2.27;;;9.30;99.90;;;;;;5008353;28;20206;-80
2022/04/08 08:26:58;;;;;;;11.70;2.47;;;9.30;99.90;;;;;;5022452;28;20213;-80
2022/04/08 08:29:25;;;;;;;7.23;2.00;;;9.40;99.90;;;;;;5021267;28;20211;-80
2022/04/08 08:31:51;;;;;;;10.07;2.97;;;9.50;99.90;;;;;;5008018;28;20199;-80
2022/04/08 08:34:18;;;;;;;10.27;3.13;;;9.70;99.90;;;;;;5008300;28;20207;-80
2022/04/08 08:36:46;;;;;;;11.80;2.90;;;9.70;99.90;;;;;;5007725;28;20227;-82
2022/04/08 08:39:13;;;;;;;12.03;3.17;;;9.70;99.90;;;;;;5008028;28;20207;-83
2022/04/08 08:41:41;;;;;;;10.93;2.80;;;9.70;99.90;;;;;;4990600;28;20242;-82
2022/04/08 08:44:08;;;;;;;13.20;2.53;;;9.60;99.90;;;;;;5007833;28;20654;-81
2022/04/08 08:46:35;;;;;;;12.87;2.93;;;9.60;99.90;;;;;;5007657;28;20207;-82
2022/04/08 08:49:04;;;;;;;7.73;2.70;;;9.60;99.90;;;;;;5007860;28;20247;-82
2022/04/08 08:51:37;;;;;;;13.53;2.57;;;9.60;99.90;;;;;;5022301;28;20218;-81
2022/04/08 08:54:05;;;;;;;9.73;2.43;;;9.60;99.90;;;;;;5015761;28;20247;-81
2022/04/08 08:56:33;;;;;;;11.03;2.40;;;9.50;99.90;;;;;;5007121;28;20634;-80
2022/04/08 08:59:00;;;;;;;7.70;2.27;;;9.50;99.90;;;;;;5006714;28;20207;-79
2022/04/08 09:01:27;;;;;;;5.87;1.97;;;9.50;99.90;;;;;;5006240;28;20210;-81
2022/04/08 09:03:54;;;;;;;5.87;1.80;;;9.50;99.90;;;;;;5006274;28;20208;-79
2022/04/08 09:06:21;;;;;;;6.27;2.27;;;9.60;99.90;;;;;;5005611;28;20941;-81
2022/04/08 09:08:56;;;;;;;5.60;1.80;;;9.80;99.90;;;;;;5007281;28;20608;-81
2022/04/08 09:11:28;;;;;;;9.70;2.50;;;10.00;99.90;;;;;;5006447;28;20713;-77
2022/04/08 09:14:02;;;;;;;5.37;1.47;;;10.20;99.90;;;;;;5007631;28;20218;-80
2022/04/08 09:16:29;;;;;;;3.77;1.63;;;10.30;99.90;;;;;;5007751;28;20650;-81
2022/04/08 09:18:57;;;;;;;6.03;1.97;;;10.40;99.90;;;;;;5007642;28;20199;-81
2022/04/08 09:21:24;;;;;;;9.23;2.13;;;10.60;99.90;;;;;;5007331;28;20611;-80
2022/04/08 09:23:52;;;;;;;8.07;2.33;;;10.60;99.90;;;;;;5006892;28;20595;-79
2022/04/08 09:26:19;;;;;;;5.07;1.53;;;10.50;99.90;;;;;;5020479;28;20214;-81
2022/04/08 09:28:47;;;;;;;4.87;1.50;;;10.50;99.90;;;;;;5028409;28;20297;-79
2022/04/08 09:31:19;;;;;;;4.83;1.50;;;10.50;99.90;;;;;;5026368;28;20528;-79
2022/04/08 09:33:50;;;;;;;6.87;2.00;;;10.40;99.90;;;;;;5008323;28;20225;-79
2022/04/08 09:36:27;;;;;;;6.53;1.43;;;10.50;99.90;;;;;;5005868;28;20234;-83
2022/04/08 09:38:54;;;;;;;8.63;1.43;;;10.60;99.90;;;;;;5007551;28;20211;-81
2022/04/08 09:41:20;;;;;;;5.90;1.30;;;10.60;99.90;;;;;;5005952;28;20215;-80
2022/04/08 09:43:50;;;;;;;7.50;1.97;;;10.60;99.90;;;;;;5004659;28;20242;-81
2022/04/08 09:46:17;;;;;;;7.13;1.83;;;10.60;99.90;;;;;;5005737;28;20242;-83
2022/04/08 09:48:45;;;;;;;9.97;1.73;;;10.60;99.90;;;;;;5015413;28;20922;-81
2022/04/08 09:51:20;;;;;;;6.47;1.73;;;10.70;99.90;;;;;;5005970;28;20207;-79
2022/04/08 09:53:51;;;;;;;8.40;1.83;;;10.70;99.90;;;;;;5006823;28;20230;-81
2022/04/08 09:56:23;;;;;;;8.07;1.60;;;10.70;99.90;;;;;;5005118;28;20310;-79
2022/04/08 09:58:57;;;;;;;6.67;1.70;;;10.60;99.90;;;;;;5020970;28;20198;-79
2022/04/08 10:01:25;;;;;;;6.60;1.60;;;10.60;99.90;;;;;;5017256;28;20237;-80
2022/04/08 10:03:52;;;;;;;7.23;2.23;;;10.60;99.90;;;;;;5006156;28;20210;-82
2022/04/08 10:06:21;;;;;;;4.87;1.50;;;10.70;99.90;;;;;;5006844;28;20294;-79
2022/04/08 10:08:49;;;;;;;7.37;1.93;;;10.70;99.90;;;;;;5006303;28;20357;-79
2022/04/08 10:11:19;;;;;;;7.70;2.27;;;10.70;99.90;;;;;;5006080;28;20234;-80
2022/04/08 10:14:05;;;;;;;6.43;1.70;;;10.60;99.90;;;;;;5009995;28;20199;-79
2022/04/08 10:16:33;;;;;;;4.67;1.50;;;10.70;99.90;;;;;;5025586;28;20223;-81
2022/04/08 10:19:04;;;;;;;7.50;1.77;;;10.70;99.90;;;;;;5012174;28;20297;-83
2022/04/08 10:21:36;;;;;;;9.27;2.00;;;10.80;99.90;;;;;;5005481;28;20638;-83
2022/04/08 10:24:09;;;;;;;8.37;2.00;;;10.90;99.90;;;;;;5005095;28;20211;-80
2022/04/08 10:26:35;;;;;;;5.47;1.50;;;10.90;99.90;;;;;;5007100;28;20191;-83
2022/04/08 10:29:11;;;;;;;3.70;1.47;;;11.10;99.90;;;;;;5020424;28;20202;-81
2022/04/08 10:31:38;;;;;;;9.13;2.57;;;11.10;99.90;;;;;;5005147;28;20194;-81
2022/04/08 10:34:06;;;;;;;5.23;1.87;;;11.30;99.90;;;;;;5003774;28;20216;-81
2022/04/08 10:36:38;;;;;;;8.53;1.70;;;11.30;99.90;;;;;;5005108;28;20227;-83
2022/04/08 10:39:15;;;;;;;5.23;1.60;;;11.20;99.90;;;;;;5012013;28;20210;-81
2022/04/08 10:41:47;;;;;;;7.43;1.43;;;11.00;99.90;;;;;;5024002;28;20214;-81
2022/04/08 10:44:16;;;;;;;6.43;1.80;;;10.80;99.90;;;;;;5023492;28;20250;-81
2022/04/08 10:46:50;;;;;;;3.73;1.50;;;10.80;99.90;;;;;;5024678;28;20208;-82
2022/04/08 10:49:17;;;;;;;6.73;1.40;;;10.90;99.90;;;;;;5022685;28;20206;-82
2022/04/08 10:51:48;;;;;;;7.83;1.77;;;10.90;99.90;;;;;;5006696;28;20348;-80
2022/04/08 10:54:16;;;;;;;10.53;1.70;;;10.90;99.90;;;;;;5024979;28;20207;-80
2022/04/08 10:56:43;;;;;;;7.67;1.90;;;10.90;99.90;;;;;;5024845;28;20226;-78
2022/04/08 10:59:11;;;;;;;4.17;1.80;;;11.00;99.90;;;;;;5023985;28;20244;-80
2022/04/08 11:01:48;;;;;;;8.47;1.63;;;11.10;99.90;;;;;;5025505;28;20219;-79
2022/04/08 11:04:19;;;;;;;10.40;2.00;;;11.00;99.90;;;;;;5016409;28;20211;-80
2022/04/08 11:06:46;;;;;;;3.97;1.50;;;11.00;99.90;;;;;;5014804;28;20203;-78
2022/04/08 11:09:14;;;;;;;6.03;1.53;;;11.00;99.90;;;;;;5023826;28;21161;-79
2022/04/08 11:11:42;;;;;;;5.90;1.97;;;11.10;99.90;;;;;;5010316;28;20262;-80
2022/04/08 11:14:10;;;;;;;5.53;1.37;;;11.10;99.90;;;;;;5009445;28;20207;-80
2022/04/08 11:16:39;;;;;;;7.63;1.60;;;11.20;99.90;;;;;;5009262;28;20691;-80
2022/04/08 11:19:08;;;;;;;5.47;2.30;;;11.20;99.90;;;;;;5009990;28;20374;-81
2022/04/08 11:21:36;;;;;;;4.77;1.27;;;11.20;99.90;;;;;;5014775;28;20211;-80
2022/04/08 11:24:05;;;;;;;6.10;1.50;;;11.20;99.90;;;;;;5028688;28;20211;-79
2022/04/08 11:26:41;;;;;;;5.63;2.03;;;11.30;99.90;;;;;;5029348;28;20211;-81
2022/04/08 11:29:13;;;;;;;4.00;1.47;;;11.50;99.90;;;;;;5028716;28;20503;-80
2022/04/08 11:31:41;;;;;;;3.70;1.57;;;11.70;99.90;;;;;;5009617;28;20219;-80
2022/04/08 11:34:09;;;;;;;3.97;1.17;;;11.70;99.90;;;;;;5008193;28;20219;-78
2022/04/08 11:36:37;;;;;;;8.43;2.00;;;11.70;99.90;;;;;;5008937;28;20219;-81
2022/04/08 11:39:05;;;;;;;5.50;1.17;;;11.60;99.90;;;;;;5009304;28;20208;-80
2022/04/08 11:41:32;;;;;;;6.87;1.43;;;11.50;99.90;;;;;;5008941;28;20242;-80
2022/04/08 11:43:59;;;;;;;4.00;1.30;;;11.50;99.90;;;;;;5009939;28;20255;-81
2022/04/08 11:46:26;;;;;;;7.47;1.47;;;11.40;99.90;;;;;;5011887;28;20215;-80
2022/04/08 11:48:53;;;;;;;4.40;1.40;;;11.40;99.90;;;;;;5029049;28;20202;-81
2022/04/08 11:51:23;;;;;;;3.67;1.10;;;11.50;99.90;;;;;;5027398;28;20210;-80
2022/04/08 11:53:51;;;;;;;1.93;0.90;;;11.50;99.90;;;;;;5028508;28;20210;-79
2022/04/08 11:56:23;;;;;;;1.90;1.00;;;11.70;99.90;;;;;;5026769;28;20222;-81
2022/04/08 11:58:58;;;;;;;4.37;1.27;;;11.70;99.90;;;;;;5027656;28;20217;-80
2022/04/08 12:01:25;;;;;;;3.13;1.10;;;11.80;99.90;;;;;;5028158;28;20202;-80
2022/04/08 12:03:52;;;;;;;3.87;1.30;;;11.80;99.90;;;;;;5028025;28;20250;-80
2022/04/08 12:06:22;;;;;;;3.73;1.33;;;11.70;99.90;;;;;;5029188;28;20199;-81
2022/04/08 12:08:49;;;;;;;4.53;1.60;;;11.70;99.90;;;;;;5029241;28;20600;-81
2022/04/08 12:11:19;;;;;;;4.37;1.27;;;11.70;99.90;;;;;;5026497;28;20520;-80
2022/04/08 12:13:48;;;;;;;7.43;1.37;;;11.70;99.90;;;;;;5018363;28;20219;-80
2022/04/08 12:16:15;;;;;;;3.10;1.30;;;11.70;99.90;;;;;;5026433;28;20215;-83
2022/04/08 12:18:51;;;;;;;5.97;1.23;;;11.50;99.90;;;;;;5028206;28;20319;-81
2022/04/08 12:21:24;;;;;;;4.03;1.40;;;11.40;99.90;;;;;;5022602;28;20217;-81
2022/04/08 12:23:51;;;;;;;4.97;1.20;;;11.50;99.90;;;;;;5027954;28;20218;-79
2022/04/08 12:26:19;;;;;;;6.83;1.20;;;11.60;99.90;;;;;;5017948;28;20470;-81
2022/04/08 12:28:47;;;;;;;7.50;1.23;;;11.70;99.90;;;;;;5017803;28;20221;-79
2022/04/08 12:31:15;;;;;;;4.47;0.90;;;11.80;99.90;;;;;;5017288;28;20538;-81
2022/04/08 12:33:42;;;;;;;4.40;1.40;;;11.90;99.90;;;;;;5014903;28;20224;-81
2022/04/08 12:36:10;;;;;;;4.00;1.27;;;12.00;99.90;;;;;;5015116;28;20218;-82
2022/04/08 12:38:39;;;;;;;4.27;1.53;;;11.90;99.90;;;;;;5017391;28;20230;-81
2022/04/08 12:41:07;;;;;;;7.17;1.57;;;11.80;99.90;;;;;;5019601;28;20293;-81
2022/04/08 12:43:34;;;;;;;4.93;1.37;;;11.60;99.90;;;;;;5014264;28;20246;-81
2022/04/08 12:46:01;;;;;;;4.93;1.57;;;11.60;99.90;;;;;;5025185;28;20228;-81
2022/04/08 12:48:28;;;;;;;4.77;1.33;;;11.50;99.90;;;;;;5020821;28;20211;-80
2022/04/08 12:50:55;;;;;;;5.83;1.43;;;11.40;99.90;;;;;;5025587;28;20245;-80